createdAt,value
2023-04-09T00:02:06.657Z,7.18
2023-04-09T00:04:34.005Z,6.88
2023-04-09T00:07:01.392Z,7.10
2023-04-09T00:09:28.724Z,7.85
2023-04-09T00:11:57.094Z,7.82
2023-04-09T00:14:24.392Z,7.70
2023-04-09T00:16:51.684Z,7.40
2023-04-09T00:19:18.954Z,7.68
2023-04-09T00:21:46.252Z,7.63
2023-04-09T00:24:13.526Z,7.40
2023-04-09T00:26:40.815Z,7.05
2023-04-09T00:29:08.154Z,7.82
2023-04-09T00:31:35.651Z,8.68
2023-04-09T00:34:03.021Z,8.27
2023-04-09T00:36:31.050Z,7.82
2023-04-09T00:38:58.996Z,7.80
2023-04-09T00:41:26.279Z,8.15
2023-04-09T00:43:53.477Z,7.50
2023-04-09T00:46:20.959Z,7.38
2023-04-09T00:48:48.308Z,6.82
2023-04-09T00:51:22.979Z,7.13
2023-04-09T00:53:50.217Z,6.60
2023-04-09T00:56:18.262Z,6.93
2023-04-09T00:58:45.609Z,6.60
2023-04-09T01:01:12.937Z,6.22
2023-04-09T01:03:40.549Z,8.18
2023-04-09T01:06:07.986Z,8.40
2023-04-09T01:08:54.373Z,7.10
2023-04-09T01:11:22.434Z,7.30
2023-04-09T01:13:56.060Z,7.63
2023-04-09T01:16:24.516Z,6.80
2023-04-09T01:18:57.280Z,6.90
2023-04-09T01:21:27.649Z,6.78
2023-04-09T01:23:55.163Z,7.85
2023-04-09T01:26:25.208Z,7.18
2023-04-09T01:28:57.012Z,6.45
2023-04-09T01:31:43.375Z,6.72
2023-04-09T01:34:11.559Z,9.65
2023-04-09T01:36:40.566Z,7.70
2023-04-09T01:39:08.133Z,6.30
2023-04-09T01:41:36.323Z,5.68
2023-04-09T01:44:04.683Z,5.90
2023-04-09T01:46:32.280Z,5.10
2023-04-09T01:49:00.207Z,5.00
2023-04-09T01:51:28.072Z,5.10
2023-04-09T01:53:55.335Z,5.32
2023-04-09T01:56:22.601Z,5.60
2023-04-09T01:58:50.083Z,4.85
2023-04-09T02:01:21.541Z,4.90
2023-04-09T02:03:52.194Z,4.40
2023-04-09T02:06:34.412Z,5.35
2023-04-09T02:09:04.129Z,4.80
2023-04-09T02:11:32.574Z,4.32
2023-04-09T02:14:00.396Z,5.53
2023-04-09T02:16:27.876Z,13.02
2023-04-09T02:19:01.303Z,7.40
2023-04-09T02:21:29.636Z,6.03
2023-04-09T02:23:57.142Z,5.35
2023-04-09T02:26:24.623Z,4.65
2023-04-09T02:28:52.293Z,5.18
2023-04-09T02:31:19.753Z,5.13
2023-04-09T02:33:47.054Z,5.18
2023-04-09T02:36:14.533Z,6.05
2023-04-09T02:38:42.516Z,7.35
2023-04-09T02:41:09.995Z,4.78
2023-04-09T02:43:37.374Z,5.13
2023-04-09T02:46:04.754Z,5.03
2023-04-09T02:48:32.070Z,4.90
2023-04-09T02:50:59.658Z,5.10
2023-04-09T02:53:27.109Z,4.50
2023-04-09T02:55:54.468Z,4.13
2023-04-09T02:58:21.756Z,4.35
2023-04-09T03:00:49.024Z,4.10
2023-04-09T03:03:16.493Z,4.20
2023-04-09T03:05:44.514Z,4.20
2023-04-09T03:08:11.731Z,4.13
2023-04-09T03:10:39.029Z,4.45
2023-04-09T03:13:06.434Z,3.72
2023-04-09T03:15:33.727Z,4.20
2023-04-09T03:18:01.095Z,4.00
2023-04-09T03:20:28.361Z,3.90
2023-04-09T03:22:55.633Z,4.63
2023-04-09T03:25:22.929Z,4.10
2023-04-09T03:27:50.201Z,3.72
2023-04-09T03:30:17.435Z,3.33
2023-04-09T03:32:44.958Z,3.55
2023-04-09T03:35:12.262Z,3.75
2023-04-09T03:37:39.519Z,3.55
2023-04-09T03:40:07.309Z,3.38
2023-04-09T03:42:35.233Z,4.05
2023-04-09T03:45:02.459Z,4.10
2023-04-09T03:47:29.756Z,3.50
2023-04-09T03:49:57.117Z,4.13
2023-04-09T03:52:24.379Z,3.53
2023-04-09T03:54:51.638Z,3.70
2023-04-09T03:57:18.901Z,3.55
2023-04-09T03:59:46.160Z,3.55
2023-04-09T04:02:13.469Z,3.33
2023-04-09T04:04:41.129Z,3.65
2023-04-09T04:07:08.875Z,3.38
2023-04-09T04:09:38.310Z,3.58
2023-04-09T04:12:07.823Z,3.80
2023-04-09T04:14:35.083Z,3.85
2023-04-09T04:17:02.333Z,4.07
2023-04-09T04:19:29.566Z,4.05
2023-04-09T04:21:56.777Z,3.88
2023-04-09T04:24:24.057Z,4.18
2023-04-09T04:26:51.356Z,3.53
2023-04-09T04:29:18.663Z,4.32
2023-04-09T04:31:45.944Z,4.05
2023-04-09T04:34:13.354Z,4.60
2023-04-09T04:36:40.695Z,4.82
2023-04-09T04:39:07.997Z,5.50
2023-04-09T04:41:35.239Z,5.55
2023-04-09T04:44:02.460Z,5.07
2023-04-09T04:46:29.701Z,5.40
2023-04-09T04:48:57.047Z,5.22
2023-04-09T04:51:24.394Z,4.30
2023-04-09T04:53:51.634Z,4.38
2023-04-09T04:56:18.903Z,4.10
2023-04-09T04:58:47.386Z,4.20
2023-04-09T05:01:14.663Z,4.60
2023-04-09T05:03:42.105Z,4.30
2023-04-09T05:06:09.470Z,4.25
2023-04-09T05:08:37.466Z,3.88
2023-04-09T05:11:04.707Z,4.43
2023-04-09T05:13:32.292Z,4.38
2023-04-09T05:15:59.545Z,4.05
2023-04-09T05:18:26.836Z,4.20
2023-04-09T05:20:54.145Z,3.90
2023-04-09T05:23:21.450Z,4.15
2023-04-09T05:25:51.540Z,3.80
2023-04-09T05:28:18.837Z,4.50
2023-04-09T05:30:49.262Z,4.30
2023-04-09T05:33:16.864Z,4.60
2023-04-09T05:35:44.137Z,4.28
2023-04-09T05:38:11.519Z,4.18
2023-04-09T05:40:38.827Z,4.72
2023-04-09T05:43:06.283Z,4.10
2023-04-09T05:45:33.507Z,3.95
2023-04-09T05:48:00.791Z,4.35
2023-04-09T05:50:28.100Z,5.13
2023-04-09T05:52:55.501Z,4.60
2023-04-09T05:55:22.829Z,4.80
2023-04-09T05:57:52.950Z,4.60
2023-04-09T06:00:20.573Z,4.37
2023-04-09T06:02:48.103Z,4.03
2023-04-09T06:05:15.552Z,3.90
2023-04-09T06:07:42.816Z,3.78
2023-04-09T06:10:10.187Z,3.50
2023-04-09T06:12:37.547Z,3.97
2023-04-09T06:15:05.554Z,3.78
2023-04-09T06:17:32.908Z,3.83
2023-04-09T06:20:00.308Z,3.97
2023-04-09T06:22:27.582Z,3.60
2023-04-09T06:24:54.993Z,4.07
2023-04-09T06:27:23.851Z,3.78
2023-04-09T06:29:51.155Z,3.65
2023-04-09T06:32:18.596Z,4.00
2023-04-09T06:34:45.896Z,3.92
2023-04-09T06:37:13.149Z,3.92
2023-04-09T06:39:44.974Z,4.20
2023-04-09T06:42:21.385Z,3.78
2023-04-09T06:44:48.677Z,4.30
2023-04-09T06:47:15.907Z,4.15
2023-04-09T06:49:43.204Z,4.38
2023-04-09T06:52:10.495Z,4.50
2023-04-09T06:54:37.775Z,5.03
2023-04-09T06:57:05.002Z,5.22
2023-04-09T06:59:32.360Z,5.30
2023-04-09T07:01:59.675Z,4.78
2023-04-09T07:04:27.484Z,3.90
2023-04-09T07:06:55.384Z,3.88
2023-04-09T07:09:22.654Z,3.60
2023-04-09T07:11:49.904Z,4.00
2023-04-09T07:14:17.161Z,4.63
2023-04-09T07:16:46.504Z,3.75
2023-04-09T07:19:13.750Z,3.00
2023-04-09T07:21:41.768Z,3.50
2023-04-09T07:24:09.015Z,3.40
2023-04-09T07:26:38.764Z,3.53
2023-04-09T07:29:06.104Z,3.30
2023-04-09T07:31:35.227Z,3.35
2023-04-09T07:34:03.358Z,3.13
2023-04-09T07:36:31.919Z,2.90
2023-04-09T07:38:59.322Z,2.75
2023-04-09T07:41:26.593Z,2.80
2023-04-09T07:43:53.865Z,2.85
2023-04-09T07:46:22.073Z,3.35
2023-04-09T07:48:50.413Z,3.40
2023-04-09T07:51:18.202Z,3.15
2023-04-09T07:53:45.534Z,2.72
2023-04-09T07:56:12.872Z,2.60
2023-04-09T07:58:40.157Z,2.35
2023-04-09T08:01:07.465Z,2.40
2023-04-09T08:03:36.615Z,2.28
2023-04-09T08:06:04.100Z,2.05
2023-04-09T08:08:31.372Z,2.30
2023-04-09T08:10:58.661Z,2.40
2023-04-09T08:13:25.974Z,1.98
2023-04-09T08:15:53.213Z,2.20
2023-04-09T08:18:20.548Z,2.00
2023-04-09T08:20:47.903Z,2.15
2023-04-09T08:23:15.485Z,1.80
2023-04-09T08:25:42.750Z,2.47
2023-04-09T08:28:10.044Z,2.00
2023-04-09T08:30:37.334Z,1.88
2023-04-09T08:33:05.459Z,2.00
2023-04-09T08:35:32.791Z,2.10
2023-04-09T08:38:00.613Z,1.80
2023-04-09T08:40:27.895Z,1.70
2023-04-09T08:42:57.029Z,1.80
2023-04-09T08:45:24.652Z,1.60
2023-04-09T08:47:52.991Z,1.98
2023-04-09T08:50:20.810Z,1.77
2023-04-09T08:52:48.780Z,1.58
2023-04-09T08:55:16.120Z,1.70
2023-04-09T08:57:43.637Z,1.60
2023-04-09T09:00:19.968Z,1.55
2023-04-09T09:03:22.950Z,1.77
2023-04-09T09:05:50.538Z,1.50
2023-04-09T09:08:27.223Z,2.17
2023-04-09T09:10:54.574Z,1.77
2023-04-09T09:13:22.504Z,1.50
2023-04-09T09:15:53.013Z,1.70
2023-04-09T09:18:20.336Z,1.30
2023-04-09T09:20:47.669Z,1.55
2023-04-09T09:23:14.988Z,1.48
2023-04-09T09:25:43.430Z,1.33
2023-04-09T09:28:12.807Z,2.75
2023-04-09T09:30:41.097Z,1.60
2023-04-09T09:33:09.321Z,1.55
2023-04-09T09:35:54.170Z,1.55
2023-04-09T09:38:21.738Z,1.40
2023-04-09T09:40:52.644Z,1.40
2023-04-09T09:43:19.994Z,1.60
2023-04-09T09:45:47.986Z,1.45
2023-04-09T09:48:15.927Z,1.20
2023-04-09T09:50:43.690Z,1.63
2023-04-09T09:53:11.854Z,1.50
2023-04-09T09:55:40.529Z,1.30
2023-04-09T09:58:17.087Z,1.38
2023-04-09T10:00:45.717Z,1.48
2023-04-09T10:03:16.093Z,1.40
2023-04-09T10:05:43.501Z,1.73
2023-04-09T10:08:11.485Z,1.63
2023-04-09T10:10:40.122Z,1.60
2023-04-09T10:13:08.127Z,1.60
2023-04-09T10:15:36.065Z,1.38
2023-04-09T10:18:03.387Z,1.38
2023-04-09T10:20:34.976Z,1.33
2023-04-09T10:23:04.747Z,1.40
2023-04-09T10:25:32.463Z,1.65
2023-04-09T10:28:03.449Z,1.60
2023-04-09T10:33:09.794Z,1.50
2023-04-09T10:35:37.111Z,1.90
2023-04-09T10:38:04.949Z,1.90
2023-04-09T10:40:32.659Z,2.08
2023-04-09T10:43:00.370Z,1.80
2023-04-09T10:45:39.743Z,1.75
2023-04-09T10:48:07.789Z,1.73
2023-04-09T10:50:36.567Z,2.00
2023-04-09T10:53:04.891Z,1.90
2023-04-09T10:55:32.145Z,1.70
2023-04-09T10:57:59.527Z,1.90
2023-04-09T11:00:26.851Z,1.83
2023-04-09T11:03:07.992Z,1.60
2023-04-09T11:05:38.317Z,2.00
2023-04-09T11:08:05.689Z,1.93
2023-04-09T11:10:33.879Z,1.48
2023-04-09T11:13:01.658Z,1.50
2023-04-09T11:15:29.229Z,1.73
2023-04-09T11:17:57.699Z,1.75
2023-04-09T11:20:25.945Z,1.60
2023-04-09T11:22:54.257Z,1.75
2023-04-09T11:25:26.512Z,1.70
2023-04-09T11:27:54.192Z,1.67
2023-04-09T11:30:21.566Z,1.70
2023-04-09T11:32:49.405Z,2.17
2023-04-09T11:35:18.650Z,2.17
2023-04-09T11:37:46.462Z,1.90
2023-04-09T11:40:21.433Z,1.98
2023-04-09T11:42:52.522Z,1.95
2023-04-09T11:47:47.382Z,2.17
2023-04-09T11:50:16.350Z,2.00
2023-04-09T11:52:44.139Z,1.88
2023-04-09T11:55:11.712Z,1.80
2023-04-09T11:57:43.130Z,1.55
2023-04-09T12:00:12.347Z,1.70
2023-04-09T12:02:40.814Z,1.52
2023-04-09T12:05:09.601Z,2.22
2023-04-09T12:07:39.571Z,2.13
2023-04-09T12:10:10.889Z,2.00
2023-04-09T12:12:41.994Z,2.03
2023-04-09T12:17:36.651Z,1.98
2023-04-09T12:20:04.024Z,1.88
2023-04-09T12:22:31.349Z,1.60
2023-04-09T12:24:58.599Z,1.60
2023-04-09T12:27:26.079Z,1.83
2023-04-09T12:29:53.354Z,1.65
2023-04-09T12:32:20.658Z,1.70
2023-04-09T12:34:49.988Z,1.80
2023-04-09T12:37:17.276Z,1.90
2023-04-09T12:39:44.507Z,1.90
2023-04-09T12:42:11.928Z,2.17
2023-04-09T12:44:39.847Z,2.15
2023-04-09T12:47:08.020Z,1.92
2023-04-09T12:49:35.285Z,2.20
2023-04-09T12:52:02.524Z,2.08
2023-04-09T12:54:29.851Z,1.90
2023-04-09T12:56:57.347Z,1.90
2023-04-09T12:59:24.615Z,2.20
2023-04-09T13:01:52.018Z,2.28
2023-04-09T13:04:19.443Z,2.10
2023-04-09T13:06:46.822Z,2.20
2023-04-09T13:09:14.052Z,2.10
2023-04-09T13:11:41.367Z,2.08
2023-04-09T13:14:13.542Z,2.17
2023-04-09T13:16:41.959Z,1.90
2023-04-09T13:19:09.926Z,1.70
2023-04-09T13:21:37.500Z,2.13
2023-04-09T13:24:05.008Z,2.17
2023-04-09T13:26:32.568Z,2.28
2023-04-09T13:29:00.180Z,2.00
2023-04-09T13:31:27.874Z,2.00
2023-04-09T13:33:55.303Z,2.05
2023-04-09T13:36:22.547Z,2.28
2023-04-09T13:38:49.948Z,2.05
2023-04-09T13:41:17.235Z,2.05
2023-04-09T13:43:45.229Z,2.08
2023-04-09T13:46:12.537Z,2.28
2023-04-09T13:48:39.777Z,2.60
2023-04-09T13:51:07.271Z,2.60
2023-04-09T13:53:34.521Z,2.60
2023-04-09T13:56:01.796Z,2.60
2023-04-09T13:58:29.090Z,2.70
2023-04-09T14:00:56.412Z,2.70
2023-04-09T14:03:26.087Z,2.35
2023-04-09T14:05:53.440Z,2.42
2023-04-09T14:08:20.686Z,2.53
2023-04-09T14:10:47.946Z,2.30
2023-04-09T14:13:15.625Z,2.65
2023-04-09T14:15:45.371Z,2.25
2023-04-09T14:18:12.696Z,2.83
2023-04-09T14:20:39.980Z,2.85
2023-04-09T14:23:07.284Z,2.92
2023-04-09T14:25:34.551Z,2.70
2023-04-09T14:28:01.925Z,2.70
2023-04-09T14:30:29.274Z,2.50
2023-04-09T14:32:56.591Z,2.80
2023-04-09T14:35:24.044Z,2.70
2023-04-09T14:37:51.609Z,2.70
2023-04-09T14:40:18.902Z,2.92
2023-04-09T14:42:46.536Z,2.90
2023-04-09T14:45:13.806Z,2.95
2023-04-09T14:47:41.075Z,2.90
2023-04-09T14:50:08.566Z,2.70
2023-04-09T14:52:36.034Z,2.83
2023-04-09T14:55:04.252Z,3.00
2023-04-09T14:57:31.500Z,2.90
2023-04-09T14:59:58.775Z,3.22
2023-04-09T15:02:26.220Z,2.97
2023-04-09T15:04:53.646Z,2.90
2023-04-09T15:07:23.220Z,2.92
2023-04-09T15:09:51.829Z,3.10
2023-04-09T15:12:19.292Z,2.78
2023-04-09T15:14:46.540Z,2.85
2023-04-09T15:17:13.809Z,2.92
2023-04-09T15:19:41.225Z,2.92
2023-04-09T15:22:08.484Z,2.53
2023-04-09T15:24:35.770Z,2.55
2023-04-09T15:27:03.044Z,2.40
2023-04-09T15:29:30.756Z,3.30
2023-04-09T15:31:58.132Z,3.60
2023-04-09T15:34:28.271Z,3.55
2023-04-09T15:36:55.714Z,3.08
2023-04-09T15:39:28.468Z,3.28
2023-04-09T15:41:59.531Z,2.80
2023-04-09T15:44:26.832Z,3.00
2023-04-09T15:46:54.186Z,2.88
2023-04-09T15:49:21.696Z,3.40
2023-04-09T15:51:49.492Z,3.42
2023-04-09T15:54:16.757Z,2.92
2023-04-09T15:56:44.043Z,3.10
2023-04-09T15:59:11.310Z,2.97
2023-04-09T16:01:39.070Z,2.85
2023-04-09T16:04:06.663Z,2.95
2023-04-09T16:06:33.929Z,2.92
2023-04-09T16:09:01.636Z,3.20
2023-04-09T16:11:28.955Z,2.80
2023-04-09T16:13:57.240Z,3.42
2023-04-09T16:16:24.541Z,3.67
2023-04-09T16:18:52.818Z,4.30
2023-04-09T16:21:20.386Z,3.22
2023-04-09T16:23:47.822Z,3.28
2023-04-09T16:26:15.661Z,3.10
2023-04-09T16:28:42.953Z,3.20
2023-04-09T16:31:10.388Z,3.55
2023-04-09T16:33:37.652Z,3.55
2023-04-09T16:36:05.434Z,3.30
2023-04-09T16:38:32.780Z,3.30
2023-04-09T16:41:00.171Z,3.20
2023-04-09T16:43:27.466Z,3.85
2023-04-09T16:45:54.785Z,3.75
2023-04-09T16:48:22.118Z,3.85
2023-04-09T16:50:49.345Z,3.80
2023-04-09T16:53:16.627Z,4.20
2023-04-09T16:55:44.926Z,3.63
2023-04-09T16:58:12.236Z,3.65
2023-04-09T17:00:40.135Z,3.90
2023-04-09T17:03:07.463Z,3.83
2023-04-09T17:05:35.320Z,4.22
2023-04-09T17:08:02.646Z,4.28
2023-04-09T17:10:29.909Z,4.35
2023-04-09T17:12:57.156Z,3.58
2023-04-09T17:15:25.320Z,3.22
2023-04-09T17:17:53.858Z,3.60
2023-04-09T17:20:22.768Z,3.30
2023-04-09T17:22:50.226Z,3.30
2023-04-09T17:25:17.740Z,4.28
2023-04-09T17:27:45.488Z,3.65
2023-04-09T17:30:13.009Z,3.63
2023-04-09T17:32:40.740Z,3.45
2023-04-09T17:35:08.381Z,3.47
2023-04-09T17:37:35.661Z,3.35
2023-04-09T17:40:03.438Z,3.30
2023-04-09T17:42:31.193Z,3.13
2023-04-09T17:44:58.429Z,3.05
2023-04-09T17:47:26.056Z,3.40
2023-04-09T17:49:53.603Z,3.08
2023-04-09T17:52:21.305Z,3.45
2023-04-09T17:54:50.683Z,4.68
2023-04-09T17:57:18.502Z,4.32
2023-04-09T17:59:45.768Z,3.72
2023-04-09T18:02:13.856Z,4.20
2023-04-09T18:04:41.836Z,4.25
2023-04-09T18:07:09.310Z,3.95
2023-04-09T18:09:39.170Z,4.13
2023-04-09T18:12:06.939Z,4.28
2023-04-09T18:14:34.171Z,4.13
2023-04-09T18:17:02.069Z,4.38
2023-04-09T18:19:29.361Z,4.57
2023-04-09T18:21:56.671Z,5.30
2023-04-09T18:24:26.324Z,5.70
2023-04-09T18:26:53.538Z,5.03
2023-04-09T18:29:20.957Z,4.65
2023-04-09T18:31:48.361Z,5.25
2023-04-09T18:34:15.845Z,4.65
2023-04-09T18:36:43.322Z,4.00
2023-04-09T18:39:10.679Z,3.50
2023-04-09T18:41:37.949Z,3.88
2023-04-09T18:44:05.348Z,3.58
2023-04-09T18:46:32.706Z,3.83
2023-04-09T18:49:00.265Z,3.88
2023-04-09T18:51:27.558Z,3.58
2023-04-09T18:53:54.899Z,3.67
2023-04-09T18:56:22.128Z,3.88
2023-04-09T18:58:49.670Z,3.80
2023-04-09T19:01:17.683Z,3.53
2023-04-09T19:03:45.458Z,3.05
2023-04-09T19:06:13.394Z,3.50
2023-04-09T19:08:41.195Z,3.30
2023-04-09T19:11:08.815Z,3.85
2023-04-09T19:13:36.374Z,3.95
2023-04-09T19:16:03.898Z,3.47
2023-04-09T19:18:33.519Z,3.80
2023-04-09T19:21:00.963Z,3.97
2023-04-09T19:23:28.773Z,3.90
2023-04-09T19:25:56.431Z,3.63
2023-04-09T19:28:24.040Z,3.63
2023-04-09T19:30:52.445Z,3.35
2023-04-09T19:33:23.553Z,4.38
2023-04-09T19:38:18.886Z,3.42
2023-04-09T19:40:46.766Z,4.10
2023-04-09T19:43:14.283Z,3.38
2023-04-09T19:45:42.760Z,4.15
2023-04-09T19:48:10.107Z,3.67
2023-04-09T19:50:38.097Z,3.83
2023-04-09T19:53:06.215Z,3.85
2023-04-09T19:55:39.379Z,3.88
2023-04-09T19:58:08.192Z,3.97
2023-04-09T20:00:35.486Z,4.35
2023-04-09T20:03:03.299Z,4.07
2023-04-09T20:05:30.792Z,3.90
2023-04-09T20:07:58.035Z,4.13
2023-04-09T20:10:25.456Z,3.80
2023-04-09T20:12:52.758Z,3.75
2023-04-09T20:15:20.278Z,4.07
2023-04-09T20:17:51.371Z,4.07
2023-04-09T20:22:55.464Z,3.90
2023-04-09T20:25:23.784Z,4.10
2023-04-09T20:27:54.198Z,4.30
2023-04-09T20:30:21.654Z,4.15
2023-04-09T20:32:49.214Z,4.22
2023-04-09T20:35:16.660Z,4.03
2023-04-09T20:37:44.240Z,3.50
2023-04-09T20:40:14.254Z,3.78
2023-04-09T20:42:41.904Z,3.90
2023-04-09T20:45:09.861Z,4.60
2023-04-09T20:47:37.252Z,4.05
2023-04-09T20:50:05.006Z,4.43
2023-04-09T20:52:32.422Z,4.13
2023-04-09T20:54:59.775Z,4.07
2023-04-09T20:57:27.304Z,4.30
2023-04-09T20:59:54.607Z,4.50
2023-04-09T21:02:22.086Z,3.85
2023-04-09T21:04:49.385Z,4.68
2023-04-09T21:07:16.622Z,4.13
2023-04-09T21:09:43.907Z,3.78
2023-04-09T21:12:11.436Z,4.00
2023-04-09T21:14:38.678Z,4.03
2023-04-09T21:17:06.158Z,4.15
2023-04-09T21:19:33.539Z,3.95
2023-04-09T21:22:01.020Z,4.22
2023-04-09T21:24:28.468Z,3.95
2023-04-09T21:26:55.718Z,3.92
2023-04-09T21:29:23.058Z,4.30
2023-04-09T21:31:50.521Z,3.72
2023-04-09T21:34:17.856Z,3.33
2023-04-09T21:36:46.303Z,3.38
2023-04-09T21:39:13.750Z,3.40
2023-04-09T21:41:41.281Z,3.72
2023-04-09T21:44:08.837Z,3.60
2023-04-09T21:46:37.123Z,4.28
2023-04-09T21:49:04.738Z,3.78
2023-04-09T21:51:32.459Z,4.50
2023-04-09T21:54:04.240Z,4.57
2023-04-09T21:56:32.003Z,4.50
2023-04-09T21:58:59.274Z,4.72
2023-04-09T22:01:29.515Z,4.50
2023-04-09T22:03:57.781Z,4.40
2023-04-09T22:06:27.368Z,4.50
2023-04-09T22:08:56.816Z,4.43
2023-04-09T22:11:28.839Z,3.70
2023-04-09T22:13:57.032Z,4.25
2023-04-09T22:16:25.285Z,4.25
2023-04-09T22:18:53.622Z,4.28
2023-04-09T22:21:21.643Z,4.28
2023-04-09T22:23:48.978Z,4.43
2023-04-09T22:26:16.262Z,3.88
2023-04-09T22:28:43.545Z,4.85
2023-04-09T22:31:10.884Z,4.20
2023-04-09T22:33:38.203Z,4.55
2023-04-09T22:36:06.570Z,4.70
2023-04-09T22:38:34.508Z,4.57
2023-04-09T22:41:01.904Z,4.30
2023-04-09T22:43:29.178Z,4.38
2023-04-09T22:45:57.400Z,4.70
2023-04-09T22:48:24.678Z,3.80
2023-04-09T22:50:51.964Z,3.80
2023-04-09T22:53:19.546Z,4.47
2023-04-09T22:55:48.813Z,4.20
2023-04-09T22:58:16.172Z,4.22
2023-04-09T23:00:43.848Z,4.65
2023-04-09T23:03:11.543Z,4.70
2023-04-09T23:05:39.456Z,4.40
2023-04-09T23:08:06.788Z,4.25
2023-04-09T23:10:35.880Z,4.70
2023-04-09T23:13:03.249Z,4.65
2023-04-09T23:15:30.532Z,4.53
2023-04-09T23:17:57.836Z,4.53
2023-04-09T23:20:27.348Z,4.53
2023-04-09T23:22:54.580Z,4.35
2023-04-09T23:25:22.576Z,4.50
2023-04-09T23:27:50.088Z,4.53
2023-04-09T23:30:18.184Z,4.57
2023-04-09T23:32:46.017Z,4.10
2023-04-09T23:35:13.473Z,4.25
2023-04-09T23:37:41.308Z,4.10
2023-04-09T23:40:09.028Z,4.45
2023-04-09T23:42:36.376Z,4.05
2023-04-09T23:45:04.578Z,3.95
2023-04-09T23:47:34.000Z,4.28
2023-04-09T23:50:05.026Z,4.28
2023-04-09T23:55:00.170Z,4.47
2023-04-09T23:57:27.790Z,4.13
2023-04-09T23:59:55.446Z,4.50
